createdAt,value
2023-03-05T00:03:22.814Z,61.58
2023-03-05T00:08:24.479Z,61.70
2023-03-05T00:13:26.129Z,61.81
2023-03-05T00:18:27.590Z,62.06
2023-03-05T00:23:29.134Z,62.20
2023-03-05T00:28:30.595Z,62.43
2023-03-05T00:33:32.452Z,62.54
2023-03-05T00:38:35.486Z,62.91
2023-03-05T00:43:37.490Z,63.65
2023-03-05T00:48:39.139Z,63.71
2023-03-05T00:53:43.846Z,64.26
2023-03-05T00:58:45.326Z,64.96
2023-03-05T01:03:47.115Z,65.47
2023-03-05T01:08:48.682Z,65.92
2023-03-05T01:13:50.147Z,65.86
2023-03-05T01:18:52.411Z,65.58
2023-03-05T01:23:54.254Z,65.22
2023-03-05T01:28:55.760Z,65.02
2023-03-05T01:33:57.738Z,64.92
2023-03-05T01:38:59.294Z,64.64
2023-03-05T01:44:00.990Z,65.02
2023-03-05T01:49:11.601Z,64.97
2023-03-05T01:54:17.370Z,65.10
2023-03-05T01:59:20.061Z,65.22
2023-03-05T02:04:26.577Z,65.09
2023-03-05T02:09:28.826Z,65.17
2023-03-05T02:14:31.249Z,65.24
2023-03-05T02:19:50.850Z,65.13
2023-03-05T02:24:52.750Z,65.21
2023-03-05T02:29:54.248Z,65.06
2023-03-05T02:34:55.777Z,65.40
2023-03-05T02:39:57.260Z,65.37
2023-03-05T02:44:59.383Z,65.53
2023-03-05T02:50:01.020Z,66.03
2023-03-05T02:55:02.906Z,66.39
2023-03-05T03:00:06.078Z,66.84
2023-03-05T03:05:08.231Z,67.18
2023-03-05T03:10:10.912Z,67.48
2023-03-05T03:15:15.198Z,67.57
2023-03-05T03:20:18.161Z,67.87
2023-03-05T03:25:23.087Z,67.75
2023-03-05T03:30:24.644Z,67.76
2023-03-05T03:35:26.156Z,68.22
2023-03-05T03:40:27.814Z,68.55
2023-03-05T03:45:29.318Z,68.65
2023-03-05T03:50:31.274Z,68.98
2023-03-05T03:55:33.615Z,69.23
2023-03-05T04:00:35.394Z,69.58
2023-03-05T04:05:36.893Z,69.56
2023-03-05T04:10:39.947Z,69.89
2023-03-05T04:15:41.560Z,70.07
2023-03-05T04:20:43.052Z,70.03
2023-03-05T04:25:44.552Z,70.06
2023-03-05T04:30:46.436Z,69.99
2023-03-05T04:35:48.187Z,69.84
2023-03-05T04:40:50.066Z,69.78
2023-03-05T04:45:51.599Z,69.83
2023-03-05T04:50:53.160Z,69.45
2023-03-05T04:55:55.745Z,69.56
2023-03-05T05:01:02.507Z,69.53
2023-03-05T05:06:04.574Z,69.06
2023-03-05T05:11:08.018Z,69.04
2023-03-05T05:16:10.045Z,68.71
2023-03-05T05:21:13.886Z,68.57
2023-03-05T05:26:15.497Z,68.10
2023-03-05T05:31:18.018Z,68.21
2023-03-05T05:36:22.749Z,68.23
2023-03-05T05:41:24.813Z,67.84
2023-03-05T05:46:26.430Z,67.68
2023-03-05T05:51:28.136Z,67.52
2023-03-05T05:56:29.629Z,67.26
2023-03-05T06:01:33.434Z,67.46
2023-03-05T06:06:35.160Z,66.75
2023-03-05T06:11:38.014Z,66.62
2023-03-05T06:16:39.917Z,65.68
2023-03-05T06:21:43.127Z,65.27
2023-03-05T06:26:46.803Z,64.72
2023-03-05T06:31:48.261Z,65.34
2023-03-05T06:36:49.999Z,64.86
2023-03-05T06:41:52.681Z,63.21
2023-03-05T06:46:54.289Z,62.73
2023-03-05T06:51:55.742Z,61.47
2023-03-05T06:56:57.454Z,60.97
2023-03-05T07:01:59.187Z,60.53
2023-03-05T07:07:01.178Z,60.42
2023-03-05T07:12:02.774Z,60.43
2023-03-05T07:17:06.976Z,60.47
2023-03-05T07:22:08.937Z,60.61
2023-03-05T07:27:10.827Z,60.84
2023-03-05T07:32:12.569Z,60.20
2023-03-05T07:37:14.578Z,59.99
2023-03-05T07:42:16.258Z,58.50
2023-03-05T07:47:17.817Z,56.41
2023-03-05T07:52:19.369Z,53.82
2023-03-05T07:57:20.908Z,53.62
2023-03-05T08:02:23.103Z,52.49
2023-03-05T08:07:24.951Z,51.86
2023-03-05T08:12:26.451Z,52.22
2023-03-05T08:17:27.948Z,52.56
2023-03-05T08:22:30.134Z,51.76
2023-03-05T08:27:32.345Z,51.64
2023-03-05T08:32:33.957Z,51.51
2023-03-05T08:37:36.416Z,50.64
2023-03-05T08:42:37.903Z,51.16
2023-03-05T08:47:39.759Z,51.77
2023-03-05T08:52:41.343Z,52.03
2023-03-05T08:57:42.822Z,52.28
2023-03-05T09:02:44.440Z,52.74
2023-03-05T09:07:46.106Z,53.13
2023-03-05T09:12:49.262Z,53.73
2023-03-05T09:17:50.813Z,54.21
2023-03-05T09:22:52.847Z,54.65
2023-03-05T09:27:54.416Z,54.41
2023-03-05T09:32:55.990Z,54.75
2023-03-05T09:37:57.932Z,55.36
2023-03-05T09:43:25.297Z,55.50
2023-03-05T09:48:44.977Z,56.13
2023-03-05T09:54:07.452Z,56.67
2023-03-05T09:59:53.140Z,56.89
2023-03-05T10:05:09.705Z,56.47
2023-03-05T10:10:11.258Z,56.99
2023-03-05T10:15:14.535Z,57.10
2023-03-05T10:20:31.419Z,57.21
2023-03-05T10:26:02.084Z,57.10
2023-03-05T10:31:25.504Z,56.80
2023-03-05T10:36:47.001Z,56.88
2023-03-05T10:42:08.736Z,56.42
2023-03-05T10:47:49.972Z,56.30
2023-03-05T10:53:28.974Z,56.16
2023-03-05T10:58:34.517Z,55.64
2023-03-05T11:04:00.273Z,55.58
2023-03-05T11:09:34.195Z,56.36
2023-03-05T11:14:38.780Z,56.21
2023-03-05T11:19:40.323Z,56.84
2023-03-05T11:24:42.425Z,56.87
2023-03-05T11:29:49.883Z,57.48
2023-03-05T11:34:52.811Z,57.74
2023-03-05T11:40:20.388Z,58.28
2023-03-05T11:45:23.798Z,58.68
2023-03-05T11:50:28.910Z,59.17
2023-03-05T11:55:38.150Z,59.78
2023-03-05T12:00:44.436Z,60.83
2023-03-05T12:05:51.284Z,61.95
2023-03-05T12:10:53.410Z,62.88
2023-03-05T12:16:26.378Z,63.90
2023-03-05T12:21:38.887Z,66.34
2023-03-05T12:27:02.203Z,67.72
2023-03-05T12:32:06.361Z,68.48
2023-03-05T12:37:33.689Z,68.42
2023-03-05T12:42:35.489Z,69.03
2023-03-05T12:47:40.308Z,68.47
2023-03-05T12:52:46.030Z,68.18
2023-03-05T12:57:52.590Z,68.98
2023-03-05T13:03:00.632Z,71.22
2023-03-05T13:08:23.591Z,69.76
2023-03-05T13:13:27.611Z,70.24
2023-03-05T13:18:32.667Z,69.93
2023-03-05T13:23:35.579Z,71.23
2023-03-05T13:28:39.509Z,70.89
2023-03-05T13:33:49.079Z,71.02
2023-03-05T13:38:51.643Z,74.04
2023-03-05T13:43:56.179Z,72.91
2023-03-05T13:49:18.055Z,73.50
2023-03-05T13:54:21.378Z,74.03
2023-03-05T13:59:34.860Z,74.11
2023-03-05T14:04:41.255Z,72.88
2023-03-05T14:09:48.848Z,73.75
2023-03-05T14:14:51.306Z,72.09
2023-03-05T14:20:08.588Z,72.84
2023-03-05T14:25:37.709Z,75.11
2023-03-05T14:30:45.808Z,75.70
2023-03-05T14:35:52.488Z,74.24
2023-03-05T14:40:54.235Z,73.54
2023-03-05T14:45:55.775Z,74.27
2023-03-05T14:50:58.416Z,75.60
2023-03-05T14:55:59.929Z,75.14
2023-03-05T15:01:01.718Z,74.75
2023-03-05T15:06:03.432Z,74.77
2023-03-05T15:11:06.953Z,74.67
2023-03-05T15:16:15.630Z,74.53
2023-03-05T15:21:17.414Z,74.62
2023-03-05T15:26:18.996Z,75.17
2023-03-05T15:31:20.555Z,75.54
2023-03-05T15:36:22.275Z,76.72
2023-03-05T15:41:23.892Z,76.62
2023-03-05T15:46:25.755Z,77.26
2023-03-05T15:51:27.433Z,77.53
2023-03-05T15:56:28.974Z,77.28
2023-03-05T16:01:30.641Z,77.44
2023-03-05T16:06:34.556Z,76.97
2023-03-05T16:11:40.067Z,76.92
2023-03-05T16:16:41.780Z,76.23
2023-03-05T16:21:43.674Z,76.22
2023-03-05T16:26:45.172Z,75.70
2023-03-05T16:31:47.701Z,75.82
2023-03-05T16:36:52.728Z,76.38
2023-03-05T16:41:54.300Z,78.43
2023-03-05T16:46:56.476Z,77.31
2023-03-05T16:52:01.416Z,76.86
2023-03-05T16:57:09.063Z,76.82
2023-03-05T17:02:13.214Z,77.11
2023-03-05T17:07:15.021Z,77.27
2023-03-05T17:12:16.506Z,77.43
2023-03-05T17:17:18.070Z,77.06
2023-03-05T17:22:19.626Z,77.07
2023-03-05T17:27:22.861Z,77.22
2023-03-05T17:32:24.400Z,78.25
2023-03-05T17:37:25.993Z,80.09
2023-03-05T17:42:27.484Z,80.41
2023-03-05T17:47:32.627Z,80.49
2023-03-05T17:52:39.151Z,80.27
2023-03-05T17:57:42.506Z,80.54
2023-03-05T18:02:44.864Z,80.38
2023-03-05T18:07:46.715Z,80.19
2023-03-05T18:12:49.410Z,79.70
2023-03-05T18:17:51.571Z,80.07
2023-03-05T18:22:53.665Z,80.46
2023-03-05T18:27:55.551Z,80.45
2023-03-05T18:32:57.530Z,80.50
2023-03-05T18:38:00.529Z,81.07
2023-03-05T18:43:03.219Z,80.75
2023-03-05T18:48:04.730Z,81.32
2023-03-05T18:53:06.653Z,81.61
2023-03-05T18:58:15.836Z,81.74
2023-03-05T19:03:19.845Z,82.48
2023-03-05T19:08:23.155Z,82.24
2023-03-05T19:13:49.309Z,82.91
2023-03-05T19:19:15.444Z,83.61
2023-03-05T19:24:17.536Z,84.12
2023-03-05T19:29:19.233Z,83.87
2023-03-05T19:34:21.587Z,83.87
2023-03-05T19:39:23.182Z,84.13
2023-03-05T19:44:24.712Z,84.14
2023-03-05T19:49:26.417Z,84.04
2023-03-05T19:54:28.064Z,84.71
2023-03-05T19:59:29.642Z,84.81
2023-03-05T20:04:31.562Z,84.80
2023-03-05T20:09:33.073Z,84.75
2023-03-05T20:14:34.559Z,84.40
2023-03-05T20:19:36.390Z,84.55
2023-03-05T20:24:38.243Z,84.69
2023-03-05T20:29:39.743Z,85.14
2023-03-05T20:34:41.349Z,85.03
2023-03-05T20:39:42.871Z,85.45
2023-03-05T20:44:44.954Z,85.39
2023-03-05T20:49:46.441Z,85.68
2023-03-05T20:54:48.159Z,85.63
2023-03-05T20:59:49.658Z,85.43
2023-03-05T21:04:51.150Z,84.93
2023-03-05T21:09:55.323Z,84.35
2023-03-05T21:14:56.901Z,84.30
2023-03-05T21:19:58.425Z,84.36
2023-03-05T21:25:33.179Z,85.13
2023-03-05T21:30:40.883Z,85.31
2023-03-05T21:35:43.239Z,85.38
2023-03-05T21:40:48.786Z,84.66
2023-03-05T21:45:53.588Z,84.42
2023-03-05T21:50:55.555Z,84.58
2023-03-05T21:56:22.782Z,84.21
2023-03-05T22:01:24.307Z,84.31
2023-03-05T22:06:26.258Z,84.70
2023-03-05T22:11:27.742Z,84.38
2023-03-05T22:16:29.333Z,84.44
2023-03-05T22:21:32.094Z,84.75
2023-03-05T22:26:36.612Z,84.04
2023-03-05T22:31:38.936Z,84.33
2023-03-05T22:36:40.481Z,84.56
2023-03-05T22:41:42.341Z,84.24
2023-03-05T22:46:44.463Z,84.49
2023-03-05T22:51:46.235Z,84.15
2023-03-05T22:56:48.062Z,84.18
2023-03-05T23:01:49.890Z,83.80
2023-03-05T23:06:51.370Z,84.20
2023-03-05T23:11:53.230Z,84.37
2023-03-05T23:16:54.730Z,84.13
2023-03-05T23:21:56.603Z,83.53
2023-03-05T23:26:58.433Z,83.94
2023-03-05T23:31:59.902Z,83.98
2023-03-05T23:37:01.410Z,83.74
2023-03-05T23:42:03.267Z,83.46
2023-03-05T23:47:04.886Z,83.57
2023-03-05T23:52:06.538Z,83.68
2023-03-05T23:57:08.028Z,83.43
